createdAt,value
2019-04-10T00:00:28.999Z,99.90
2019-04-10T00:02:57.790Z,99.90
2019-04-10T00:05:26.283Z,99.90
2019-04-10T00:07:55.490Z,99.90
2019-04-10T00:10:24.022Z,99.90
2019-04-10T00:12:52.595Z,99.90
2019-04-10T00:15:22.119Z,99.90
2019-04-10T00:17:51.483Z,99.90
2019-04-10T00:20:20.443Z,99.90
2019-04-10T00:22:48.948Z,99.90
2019-04-10T00:25:17.412Z,99.90
2019-04-10T00:27:45.864Z,99.90
2019-04-10T00:30:14.396Z,99.90
2019-04-10T00:32:43.864Z,99.90
2019-04-10T00:35:12.947Z,99.90
2019-04-10T00:37:41.432Z,99.90
2019-04-10T00:40:10.945Z,99.90
2019-04-10T00:42:39.458Z,99.90
2019-04-10T00:45:09.130Z,99.90
2019-04-10T00:47:37.674Z,99.90
2019-04-10T00:50:06.674Z,99.90
2019-04-10T00:52:35.138Z,99.90
2019-04-10T00:55:04.067Z,99.90
2019-04-10T00:57:33.737Z,99.90
2019-04-10T01:00:02.302Z,99.90
2019-04-10T01:02:30.745Z,99.90
2019-04-10T01:04:59.211Z,99.90
2019-04-10T01:07:36.581Z,99.90
2019-04-10T01:09:57.824Z,99.90
2019-04-10T01:12:26.267Z,99.90
2019-04-10T01:14:54.723Z,99.90
2019-04-10T01:17:24.036Z,99.90
2019-04-10T01:19:52.885Z,99.90
2019-04-10T01:22:21.334Z,99.90
2019-04-10T01:24:50.232Z,99.90
2019-04-10T01:27:18.810Z,99.90
2019-04-10T01:29:47.269Z,99.90
2019-04-10T01:32:15.722Z,99.90
2019-04-10T01:34:44.179Z,99.90
2019-04-10T01:37:12.623Z,99.90
2019-04-10T01:39:42.101Z,99.90
2019-04-10T01:42:10.792Z,99.90
2019-04-10T01:44:39.263Z,99.90
2019-04-10T01:47:07.848Z,99.90
2019-04-10T01:49:36.339Z,99.90
2019-04-10T01:52:04.897Z,99.90
2019-04-10T01:54:33.421Z,99.90
2019-04-10T01:57:02.043Z,99.90
2019-04-10T01:59:32.140Z,99.90
2019-04-10T02:02:03.083Z,99.90
2019-04-10T02:04:31.636Z,99.90
2019-04-10T02:07:00.109Z,99.90
2019-04-10T02:09:29.695Z,99.90
2019-04-10T02:11:58.546Z,99.90
2019-04-10T02:14:28.000Z,99.90
2019-04-10T02:16:57.016Z,99.90
2019-04-10T02:19:26.130Z,99.90
2019-04-10T02:21:54.693Z,99.90
2019-04-10T02:24:23.194Z,99.90
2019-04-10T02:26:51.952Z,99.90
2019-04-10T02:29:20.487Z,99.90
2019-04-10T02:31:50.559Z,99.90
2019-04-10T02:34:19.453Z,99.90
2019-04-10T02:36:50.675Z,99.90
2019-04-10T02:39:27.521Z,99.90
2019-04-10T02:41:49.987Z,99.90
2019-04-10T02:44:18.767Z,99.90
2019-04-10T02:46:47.476Z,99.90
2019-04-10T02:49:16.378Z,99.90
2019-04-10T02:51:45.448Z,99.90
2019-04-10T02:54:15.347Z,99.90
2019-04-10T02:56:45.622Z,99.90
2019-04-10T02:59:15.454Z,99.90
2019-04-10T03:01:44.111Z,99.90
2019-04-10T03:04:13.350Z,99.90
2019-04-10T03:06:42.884Z,99.90
2019-04-10T03:09:30.417Z,99.90
2019-04-10T03:11:42.138Z,99.90
2019-04-10T03:14:12.499Z,99.90
2019-04-10T03:16:41.774Z,99.90
2019-04-10T03:19:11.530Z,99.90
2019-04-10T03:21:40.124Z,99.90
2019-04-10T03:24:09.524Z,99.90
2019-04-10T03:26:38.144Z,99.90
2019-04-10T03:29:07.344Z,99.90
2019-04-10T03:31:36.912Z,99.90
2019-04-10T03:34:21.865Z,99.90
2019-04-10T03:36:49.840Z,99.90
2019-04-10T03:39:18.391Z,99.90
2019-04-10T03:41:46.893Z,99.90
2019-04-10T03:44:16.495Z,99.90
2019-04-10T03:46:45.073Z,99.90
2019-04-10T03:49:13.748Z,99.90
2019-04-10T03:51:43.004Z,99.90
2019-04-10T03:54:11.554Z,99.90
2019-04-10T03:56:40.193Z,99.90
2019-04-10T03:59:08.686Z,99.90
2019-04-10T04:01:37.126Z,99.90
2019-04-10T04:04:05.584Z,99.90
2019-04-10T04:06:34.022Z,99.90
2019-04-10T04:09:07.785Z,99.90
2019-04-10T04:11:33.535Z,99.90
2019-04-10T04:14:02.096Z,99.90
2019-04-10T04:16:31.068Z,99.90
2019-04-10T04:18:59.789Z,99.90
2019-04-10T04:21:28.278Z,99.90
2019-04-10T04:23:57.272Z,99.90
2019-04-10T04:26:25.736Z,99.90
2019-04-10T04:28:54.199Z,99.90
2019-04-10T04:31:22.870Z,99.90
2019-04-10T04:33:51.370Z,99.90
2019-04-10T04:36:20.388Z,99.90
2019-04-10T04:38:49.181Z,99.90
2019-04-10T04:41:17.662Z,99.90
2019-04-10T04:43:47.623Z,99.90
2019-04-10T04:46:16.283Z,99.90
2019-04-10T04:48:45.361Z,99.90
2019-04-10T04:51:13.870Z,99.90
2019-04-10T04:53:42.330Z,99.90
2019-04-10T04:56:11.486Z,99.90
2019-04-10T04:58:39.997Z,99.90
2019-04-10T05:01:08.483Z,99.90
2019-04-10T05:03:37.578Z,99.90
2019-04-10T05:06:06.099Z,99.90
2019-04-10T05:08:34.554Z,99.90
2019-04-10T05:11:04.242Z,99.90
2019-04-10T05:13:32.969Z,99.90
2019-04-10T05:16:02.644Z,99.90
2019-04-10T05:18:31.714Z,99.90
2019-04-10T05:21:00.930Z,99.90
2019-04-10T05:23:29.439Z,99.90
2019-04-10T05:25:59.001Z,99.90
2019-04-10T05:28:28.491Z,99.90
2019-04-10T05:30:58.836Z,99.90
2019-04-10T05:33:27.411Z,99.90
2019-04-10T05:35:56.938Z,99.90
2019-04-10T05:38:25.482Z,99.90
2019-04-10T05:40:55.051Z,99.90
2019-04-10T05:43:24.001Z,99.90
2019-04-10T05:45:53.239Z,99.90
2019-04-10T05:48:23.499Z,99.90
2019-04-10T05:50:57.900Z,99.90
2019-04-10T05:53:22.538Z,99.90
2019-04-10T05:55:51.635Z,99.90
2019-04-10T05:58:20.182Z,99.90
2019-04-10T06:00:49.858Z,99.90
2019-04-10T06:03:18.629Z,99.90
2019-04-10T06:05:47.112Z,99.90
2019-04-10T06:08:16.087Z,99.90
2019-04-10T06:10:45.494Z,99.90
2019-04-10T06:13:15.079Z,99.90
2019-04-10T06:15:43.907Z,99.90
2019-04-10T06:18:12.779Z,99.90
2019-04-10T06:20:42.552Z,99.90
2019-04-10T06:23:11.554Z,99.90
2019-04-10T06:25:41.907Z,99.90
2019-04-10T06:28:10.183Z,99.90
2019-04-10T06:30:39.687Z,99.90
2019-04-10T06:33:08.266Z,99.90
2019-04-10T06:35:37.749Z,99.90
2019-04-10T06:38:06.442Z,99.90
2019-04-10T06:40:35.547Z,99.90
2019-04-10T06:43:04.405Z,99.90
2019-04-10T06:45:33.584Z,99.90
2019-04-10T06:48:02.698Z,99.90
2019-04-10T06:50:31.628Z,99.90
2019-04-10T06:53:00.163Z,99.90
2019-04-10T06:55:28.607Z,99.90
2019-04-10T06:57:58.226Z,99.90
2019-04-10T07:00:28.447Z,99.90
2019-04-10T07:02:57.038Z,99.90
2019-04-10T07:05:36.988Z,99.90
2019-04-10T07:08:01.841Z,99.90
2019-04-10T07:10:33.599Z,99.90
2019-04-10T07:12:56.003Z,99.90
2019-04-10T07:15:25.579Z,99.90
2019-04-10T07:17:55.360Z,99.90
2019-04-10T07:20:24.131Z,99.90
2019-04-10T07:22:53.354Z,99.90
2019-04-10T07:25:21.847Z,99.90
2019-04-10T07:27:50.311Z,99.90
2019-04-10T07:30:19.457Z,99.90
2019-04-10T07:32:49.195Z,99.90
2019-04-10T07:35:21.468Z,99.90
2019-04-10T07:37:51.582Z,99.90
2019-04-10T07:40:18.654Z,99.90
2019-04-10T07:42:48.280Z,99.90
2019-04-10T07:45:17.133Z,99.90
2019-04-10T07:47:46.245Z,99.90
2019-04-10T07:50:16.390Z,99.90
2019-04-10T07:52:45.912Z,99.90
2019-04-10T07:55:14.915Z,99.90
2019-04-10T07:57:47.181Z,99.90
2019-04-10T08:00:16.049Z,99.90
2019-04-10T08:02:44.837Z,99.90
2019-04-10T08:05:13.575Z,99.90
2019-04-10T08:07:42.973Z,98.00
2019-04-10T08:10:12.109Z,98.80
2019-04-10T08:12:48.591Z,93.90
2019-04-10T08:15:11.612Z,91.60
2019-04-10T08:17:41.006Z,91.50
2019-04-10T08:20:10.021Z,90.30
2019-04-10T08:22:39.307Z,81.30
2019-04-10T08:25:08.922Z,88.90
2019-04-10T08:27:38.468Z,86.50
2019-04-10T08:30:10.669Z,80.10
2019-04-10T08:32:51.228Z,76.50
2019-04-10T08:35:09.105Z,78.10
2019-04-10T08:37:38.895Z,77.30
2019-04-10T08:40:09.675Z,77.30
2019-04-10T08:42:40.190Z,70.70
2019-04-10T08:45:09.228Z,70.60
2019-04-10T08:47:37.762Z,70.00
2019-04-10T08:50:07.861Z,68.10
2019-04-10T08:52:37.048Z,64.70
2019-04-10T08:55:06.158Z,65.20
2019-04-10T08:57:34.603Z,64.10
2019-04-10T09:00:04.652Z,67.70
2019-04-10T09:02:33.895Z,62.20
2019-04-10T09:05:03.529Z,62.10
2019-04-10T09:07:32.551Z,59.60
2019-04-10T09:10:01.889Z,61.20
2019-04-10T09:12:31.550Z,60.30
2019-04-10T09:15:01.353Z,59.00
2019-04-10T09:17:31.223Z,56.50
2019-04-10T09:20:00.589Z,56.50
2019-04-10T09:22:41.924Z,58.10
2019-04-10T09:25:00.575Z,62.20
2019-04-10T09:27:29.208Z,59.70
2019-04-10T09:29:57.663Z,57.20
2019-04-10T09:32:26.468Z,53.40
2019-04-10T09:34:56.061Z,51.60
2019-04-10T09:37:24.667Z,52.10
2019-04-10T09:39:54.653Z,53.10
2019-04-10T09:42:23.651Z,51.90
2019-04-10T09:44:52.789Z,51.60
2019-04-10T09:47:21.365Z,49.70
2019-04-10T09:49:49.816Z,50.00
2019-04-10T09:52:18.716Z,50.60
2019-04-10T09:54:47.305Z,51.80
2019-04-10T09:57:15.883Z,52.40
2019-04-10T09:59:45.617Z,52.00
2019-04-10T10:02:16.044Z,51.50
2019-04-10T10:04:45.903Z,50.90
2019-04-10T10:07:14.544Z,51.20
2019-04-10T10:09:43.178Z,51.50
2019-04-10T10:12:11.833Z,50.10
2019-04-10T10:14:40.355Z,51.90
2019-04-10T10:17:08.863Z,48.50
2019-04-10T10:19:39.159Z,48.40
2019-04-10T10:22:07.643Z,48.70
2019-04-10T10:24:36.221Z,48.70
2019-04-10T10:27:05.368Z,48.30
2019-04-10T10:29:33.911Z,51.00
2019-04-10T10:32:02.611Z,49.50
2019-04-10T10:34:31.325Z,49.90
2019-04-10T10:37:00.316Z,50.40
2019-04-10T10:39:28.767Z,50.40
2019-04-10T10:41:57.225Z,49.70
2019-04-10T10:44:26.047Z,48.60
2019-04-10T10:46:55.672Z,48.70
2019-04-10T10:49:24.385Z,49.50
2019-04-10T10:51:53.292Z,49.50
2019-04-10T10:54:23.020Z,49.60
2019-04-10T10:56:51.553Z,49.80
2019-04-10T10:59:20.007Z,50.60
2019-04-10T11:01:48.528Z,49.20
2019-04-10T11:04:17.144Z,50.90
2019-04-10T11:06:55.223Z,48.60
2019-04-10T11:09:16.338Z,49.30
2019-04-10T11:11:45.417Z,48.70
2019-04-10T11:14:15.002Z,48.40
2019-04-10T11:16:43.503Z,48.60
2019-04-10T11:19:12.996Z,48.10
2019-04-10T11:21:42.858Z,48.80
2019-04-10T11:24:11.465Z,49.60
2019-04-10T11:26:40.080Z,49.10
2019-04-10T11:29:09.924Z,49.60
2019-04-10T11:31:39.606Z,48.40
2019-04-10T11:34:09.980Z,48.40
2019-04-10T11:36:39.907Z,49.30
2019-04-10T11:39:17.120Z,49.10
2019-04-10T11:41:41.157Z,47.80
2019-04-10T11:44:11.368Z,47.60
2019-04-10T11:46:41.864Z,48.60
2019-04-10T11:49:13.825Z,49.10
2019-04-10T11:51:40.427Z,47.90
2019-04-10T11:56:39.046Z,48.90
2019-04-10T11:59:09.800Z,48.50
2019-04-10T12:01:39.214Z,48.70
2019-04-10T12:04:10.126Z,49.50
2019-04-10T12:06:39.807Z,48.60
2019-04-10T12:09:45.207Z,49.50
2019-04-10T12:11:41.449Z,49.50
2019-04-10T12:14:11.015Z,49.60
2019-04-10T12:16:39.674Z,49.10
2019-04-10T12:19:08.131Z,49.60
2019-04-10T12:21:36.574Z,50.90
2019-04-10T12:24:05.393Z,50.10
2019-04-10T12:26:34.036Z,50.10
2019-04-10T12:29:02.758Z,49.90
2019-04-10T12:31:32.980Z,49.30
2019-04-10T12:34:01.737Z,50.30
2019-04-10T12:36:31.008Z,49.00
2019-04-10T12:39:00.334Z,49.20
2019-04-10T12:41:28.810Z,48.00
2019-04-10T12:43:57.281Z,49.80
2019-04-10T12:46:26.737Z,50.40
2019-04-10T12:48:55.289Z,50.80
2019-04-10T12:51:23.905Z,49.50
2019-04-10T12:53:52.356Z,49.80
2019-04-10T12:56:21.945Z,49.60
2019-04-10T12:58:51.716Z,49.00
2019-04-10T13:01:20.513Z,49.50
2019-04-10T13:03:49.939Z,50.60
2019-04-10T13:06:18.475Z,50.30
2019-04-10T13:09:00.043Z,50.00
2019-04-10T13:11:18.455Z,51.30
2019-04-10T13:13:46.923Z,49.90
2019-04-10T13:16:16.172Z,51.80
2019-04-10T13:18:44.807Z,52.50
2019-04-10T13:21:14.594Z,53.10
2019-04-10T13:23:43.186Z,51.80
2019-04-10T13:26:11.657Z,52.60
2019-04-10T13:28:40.115Z,52.70
2019-04-10T13:31:08.951Z,52.70
2019-04-10T13:33:38.481Z,52.20
2019-04-10T13:36:07.254Z,53.00
2019-04-10T13:38:36.855Z,52.00
2019-04-10T13:41:06.063Z,52.50
2019-04-10T13:43:34.563Z,53.20
2019-04-10T13:46:03.040Z,53.40
2019-04-10T13:48:31.561Z,54.20
2019-04-10T13:51:01.153Z,53.80
2019-04-10T13:53:30.215Z,54.20
2019-04-10T13:55:59.009Z,54.70
2019-04-10T13:58:28.904Z,54.50
2019-04-10T14:00:57.506Z,54.90
2019-04-10T14:03:26.119Z,56.20
2019-04-10T14:05:54.848Z,55.90
2019-04-10T14:08:35.986Z,55.60
2019-04-10T14:10:54.945Z,55.80
2019-04-10T14:13:24.098Z,56.40
2019-04-10T14:15:52.630Z,56.10
2019-04-10T14:18:22.029Z,55.70
2019-04-10T14:20:51.334Z,56.50
2019-04-10T14:23:29.537Z,57.30
2019-04-10T14:26:00.589Z,58.10
2019-04-10T14:28:31.282Z,58.40
2019-04-10T14:31:02.067Z,57.20
2019-04-10T14:33:30.577Z,57.30
2019-04-10T14:35:59.986Z,56.80
2019-04-10T14:38:28.620Z,56.30
2019-04-10T14:40:57.733Z,57.00
2019-04-10T14:43:26.432Z,57.90
2019-04-10T14:45:54.927Z,58.50
2019-04-10T14:48:24.439Z,58.90
2019-04-10T14:50:52.977Z,58.20
2019-04-10T14:53:22.652Z,59.70
2019-04-10T14:55:51.468Z,58.90
2019-04-10T14:58:25.189Z,59.20
2019-04-10T15:00:50.373Z,59.20
2019-04-10T15:03:20.288Z,59.50
2019-04-10T15:05:52.226Z,61.40
2019-04-10T15:08:19.695Z,59.90
2019-04-10T15:10:48.181Z,59.90
2019-04-10T15:13:20.809Z,60.40
2019-04-10T15:15:46.821Z,60.00
2019-04-10T15:18:15.275Z,60.30
2019-04-10T15:20:43.802Z,59.80
2019-04-10T15:23:12.265Z,61.00
2019-04-10T15:25:41.667Z,60.40
2019-04-10T15:28:10.481Z,61.30
2019-04-10T15:30:39.073Z,61.50
2019-04-10T15:33:07.610Z,61.50
2019-04-10T15:35:36.083Z,62.10
2019-04-10T15:38:04.674Z,61.80
2019-04-10T15:40:34.327Z,62.50
2019-04-10T15:43:02.982Z,63.30
2019-04-10T15:45:32.448Z,63.80
2019-04-10T15:48:01.778Z,63.30
2019-04-10T15:50:32.496Z,63.40
2019-04-10T15:53:02.111Z,64.10
2019-04-10T15:55:32.031Z,64.10
2019-04-10T15:58:02.441Z,63.60
2019-04-10T16:00:31.011Z,63.80
2019-04-10T16:03:00.663Z,64.50
2019-04-10T16:05:29.336Z,64.20
2019-04-10T16:07:58.673Z,64.00
2019-04-10T16:10:29.003Z,64.00
2019-04-10T16:13:01.804Z,64.30
2019-04-10T16:15:31.917Z,64.60
2019-04-10T16:18:02.927Z,65.00
2019-04-10T16:20:33.642Z,64.80
2019-04-10T16:23:12.583Z,65.70
2019-04-10T16:25:43.399Z,65.20
2019-04-10T16:28:12.694Z,65.00
2019-04-10T16:30:41.225Z,64.90
2019-04-10T16:33:09.668Z,65.00
2019-04-10T16:35:38.485Z,65.00
2019-04-10T16:38:07.066Z,65.90
2019-04-10T16:40:36.211Z,66.50
2019-04-10T16:43:06.061Z,67.70
2019-04-10T16:45:34.894Z,66.80
2019-04-10T16:48:03.544Z,67.10
2019-04-10T16:50:31.998Z,68.10
2019-04-10T16:53:01.341Z,67.60
2019-04-10T16:55:30.038Z,67.90
2019-04-10T16:57:59.098Z,67.70
2019-04-10T17:00:27.677Z,68.60
2019-04-10T17:02:56.606Z,70.40
2019-04-10T17:05:25.489Z,71.60
2019-04-10T17:07:55.180Z,73.50
2019-04-10T17:10:27.372Z,76.10
2019-04-10T17:12:55.239Z,77.20
2019-04-10T17:15:23.962Z,79.00
2019-04-10T17:17:52.730Z,82.00
2019-04-10T17:20:22.519Z,83.80
2019-04-10T17:22:52.044Z,85.70
2019-04-10T17:25:20.569Z,86.20
2019-04-10T17:27:50.054Z,88.40
2019-04-10T17:30:19.906Z,89.10
2019-04-10T17:32:48.655Z,89.20
2019-04-10T17:35:17.435Z,90.20
2019-04-10T17:37:45.900Z,91.30
2019-04-10T17:40:27.415Z,92.70
2019-04-10T17:42:46.369Z,94.20
2019-04-10T17:45:15.248Z,96.30
2019-04-10T17:47:45.178Z,96.50
2019-04-10T17:50:16.270Z,96.50
2019-04-10T17:52:45.160Z,97.80
2019-04-10T17:55:14.194Z,98.20
2019-04-10T17:57:44.617Z,99.40
2019-04-10T18:00:29.345Z,99.50
2019-04-10T18:02:59.026Z,99.90
2019-04-10T18:05:28.661Z,99.90
2019-04-10T18:07:57.349Z,99.90
2019-04-10T18:10:34.383Z,99.90
2019-04-10T18:12:56.644Z,99.90
2019-04-10T18:15:26.137Z,99.90
2019-04-10T18:17:55.570Z,99.90
2019-04-10T18:20:24.341Z,99.90
2019-04-10T18:22:53.337Z,99.90
2019-04-10T18:25:22.187Z,99.90
2019-04-10T18:27:50.741Z,99.90
2019-04-10T18:30:19.588Z,99.90
2019-04-10T18:32:48.084Z,99.90
2019-04-10T18:35:16.554Z,99.90
2019-04-10T18:37:44.992Z,99.90
2019-04-10T18:40:13.535Z,99.90
2019-04-10T18:42:41.981Z,99.90
2019-04-10T18:45:11.250Z,99.90
2019-04-10T18:47:39.793Z,99.90
2019-04-10T18:50:08.489Z,99.90
2019-04-10T18:52:37.351Z,99.90
2019-04-10T18:55:06.347Z,99.90
2019-04-10T18:57:35.704Z,99.90
2019-04-10T19:00:23.958Z,99.90
2019-04-10T19:03:09.604Z,99.90
2019-04-10T19:05:40.290Z,99.90
2019-04-10T19:08:12.468Z,99.90
2019-04-10T19:10:39.127Z,99.90
2019-04-10T19:13:07.666Z,99.90
2019-04-10T19:15:40.502Z,99.90
2019-04-10T19:18:09.674Z,99.90
2019-04-10T19:20:38.954Z,99.90
2019-04-10T19:23:08.871Z,99.90
2019-04-10T19:25:38.807Z,99.90
2019-04-10T19:28:08.367Z,99.90
2019-04-10T19:30:41.714Z,99.90
2019-04-10T19:33:10.256Z,99.90
2019-04-10T19:35:39.256Z,99.90
2019-04-10T19:38:07.856Z,99.90
2019-04-10T19:40:37.447Z,99.90
2019-04-10T19:43:08.168Z,99.90
2019-04-10T19:45:36.830Z,99.90
2019-04-10T19:48:06.683Z,99.90
2019-04-10T19:50:35.297Z,99.90
2019-04-10T19:53:04.758Z,99.90
2019-04-10T19:55:33.270Z,99.90
2019-04-10T19:58:01.842Z,99.90
2019-04-10T20:00:32.650Z,99.90
2019-04-10T20:03:01.558Z,99.90
2019-04-10T20:05:30.087Z,99.90
2019-04-10T20:07:59.536Z,99.90
2019-04-10T20:10:28.311Z,99.90
2019-04-10T20:12:57.234Z,99.90
2019-04-10T20:15:26.712Z,99.90
2019-04-10T20:17:55.245Z,99.90
2019-04-10T20:20:23.704Z,99.90
2019-04-10T20:22:52.150Z,99.90
2019-04-10T20:25:20.613Z,99.90
2019-04-10T20:27:50.099Z,99.90
2019-04-10T20:30:20.586Z,99.90
2019-04-10T20:32:50.157Z,99.90
2019-04-10T20:35:18.735Z,99.90
2019-04-10T20:37:47.165Z,99.90
2019-04-10T20:40:15.921Z,99.90
2019-04-10T20:42:44.681Z,99.90
2019-04-10T20:45:14.352Z,99.90
2019-04-10T20:47:43.503Z,99.90
2019-04-10T20:50:12.102Z,99.90
2019-04-10T20:52:41.018Z,99.90
2019-04-10T20:55:11.153Z,99.90
2019-04-10T20:57:39.699Z,99.90
2019-04-10T21:00:10.022Z,99.90
2019-04-10T21:02:38.592Z,99.90
2019-04-10T21:05:09.752Z,99.90
2019-04-10T21:07:37.772Z,99.90
2019-04-10T21:10:06.743Z,99.90
2019-04-10T21:12:36.315Z,99.90
2019-04-10T21:15:06.338Z,99.90
2019-04-10T21:17:34.797Z,99.90
2019-04-10T21:20:05.549Z,99.90
2019-04-10T21:22:34.126Z,99.90
2019-04-10T21:25:02.836Z,99.90
2019-04-10T21:27:32.040Z,99.90
2019-04-10T21:30:20.186Z,99.90
2019-04-10T21:33:02.151Z,99.90
2019-04-10T21:35:32.756Z,99.90
2019-04-10T21:38:02.512Z,99.90
2019-04-10T21:40:31.088Z,99.90
2019-04-10T21:42:59.592Z,99.90
2019-04-10T21:45:28.030Z,99.90
2019-04-10T21:47:56.496Z,99.90
2019-04-10T21:50:25.102Z,99.90
2019-04-10T21:52:53.601Z,99.90
2019-04-10T21:55:22.527Z,99.90
2019-04-10T21:57:52.066Z,99.90
2019-04-10T22:00:22.290Z,99.90
2019-04-10T22:02:51.952Z,99.90
2019-04-10T22:05:20.498Z,99.90
2019-04-10T22:07:53.390Z,99.90
2019-04-10T22:10:32.288Z,99.90
2019-04-10T22:13:01.562Z,99.90
2019-04-10T22:15:35.203Z,99.90
2019-04-10T22:18:05.053Z,99.90
2019-04-10T22:20:33.862Z,99.90
2019-04-10T22:23:02.440Z,99.90
2019-04-10T22:25:31.899Z,99.90
2019-04-10T22:28:00.644Z,99.90
2019-04-10T22:30:29.525Z,99.90
2019-04-10T22:32:58.129Z,99.90
2019-04-10T22:35:27.795Z,99.90
2019-04-10T22:37:56.712Z,99.90
2019-04-10T22:40:25.678Z,99.90
2019-04-10T22:42:55.346Z,99.90
2019-04-10T22:45:27.968Z,99.90
2019-04-10T22:47:58.455Z,99.90
2019-04-10T22:50:27.534Z,99.90
2019-04-10T22:52:57.020Z,99.90
2019-04-10T22:55:26.067Z,99.90
2019-04-10T22:57:54.802Z,99.90
2019-04-10T23:00:32.799Z,99.90
2019-04-10T23:03:02.628Z,99.90
2019-04-10T23:05:32.311Z,99.90
2019-04-10T23:08:01.177Z,99.90
2019-04-10T23:10:29.902Z,99.90
2019-04-10T23:13:02.878Z,99.90
2019-04-10T23:15:28.854Z,99.90
2019-04-10T23:17:57.399Z,99.90
2019-04-10T23:20:25.990Z,99.90
2019-04-10T23:22:54.877Z,99.90
2019-04-10T23:25:24.559Z,99.90
2019-04-10T23:27:55.169Z,99.90
2019-04-10T23:30:24.518Z,99.90
2019-04-10T23:32:53.495Z,99.90
2019-04-10T23:35:22.190Z,99.90
2019-04-10T23:37:51.143Z,99.90
2019-04-10T23:40:20.886Z,99.90
2019-04-10T23:43:01.230Z,99.90
2019-04-10T23:45:19.758Z,99.90
2019-04-10T23:47:48.696Z,99.90
2019-04-10T23:50:18.451Z,99.90
2019-04-10T23:52:47.877Z,99.90
2019-04-10T23:55:17.672Z,99.90
2019-04-10T23:57:46.634Z,99.90
